Time;durP1;ratioP1;P1;durP2;ratioP2;P2;SDS_P1;SDS_P2;PMS_P1;PMS_P2;Temp;Humidity;BMP_temperature;BMP_pressure;BME280_temperature;BME280_humidity;BME280_pressure;Samples;Min_cycle;Max_cycle;Signal;HPM_P1;HPM_P2
2022/08/10 00:02:35;;;;;;;;;;;;;;;24.15;36.25;100128.31;4448310;32;33953;-79
2022/08/10 00:05:04;;;;;;;;;;;;;;;24.16;36.10;100133.53;4462006;32;34065;-78
2022/08/10 00:07:32;;;;;;;;;;;;;;;23.51;37.28;100130.41;4468006;32;34455;-78
2022/08/10 00:10:02;;;;;;;;;;;;;;;23.88;36.69;100123.78;4456053;32;33074;-78
2022/08/10 00:12:31;;;;;;;;;;;;;;;23.94;36.39;100126.03;4462979;32;34157;-79
2022/08/10 00:15:21;;;;;;;;;;;;;;;23.78;36.67;100128.78;4457049;32;34295;-78
2022/08/10 00:18:09;;;;;;;;;;;;;;;23.71;36.93;100123.94;4463839;32;34190;-78
2022/08/10 00:20:58;;;;;;;;;;;;;;;23.56;37.35;100123.06;4458338;32;33992;-79
2022/08/10 00:23:27;;;;;;;;;;;;;;;23.60;37.44;100124.56;4458977;32;34219;-77
2022/08/10 00:25:56;;;;;;;;;;;;;;;24.13;36.37;100122.25;4452382;32;32264;-78
2022/08/10 00:28:25;;;;;;;;;;;;;;;23.90;37.06;100126.34;4462777;32;34648;-78
2022/08/10 00:30:53;;;;;;;;;;;;;;;23.70;37.67;100125.72;4463513;32;33147;-79
2022/08/10 00:33:22;;;;;;;;;;;;;;;23.80;37.11;100126.03;4460225;32;34093;-78
2022/08/10 00:35:50;;;;;;;;;;;;;;;23.65;37.22;100127.78;4464654;32;33891;-78
2022/08/10 00:38:19;;;;;;;;;;;;;;;23.82;37.03;100118.84;4468385;32;34036;-78
2022/08/10 00:40:47;;;;;;;;;;;;;;;23.91;37.00;100122.75;4457703;32;32752;-80
2022/08/10 00:43:17;;;;;;;;;;;;;;;23.81;36.85;100120.66;4461516;32;34765;-77
2022/08/10 00:45:51;;;;;;;;;;;;;;;23.45;37.72;100118.41;4459831;32;34207;-77
2022/08/10 00:48:28;;;;;;;;;;;;;;;23.31;38.06;100119.22;4464159;32;33932;-79
2022/08/10 00:50:59;;;;;;;;;;;;;;;23.60;37.63;100111.31;4462064;32;31446;-78
2022/08/10 00:53:28;;;;;;;;;;;;;;;23.29;38.12;100115.81;4465595;32;33836;-77
2022/08/10 00:55:57;;;;;;;;;;;;;;;23.44;37.97;100122.00;4452141;32;34347;-77
2022/08/10 00:58:47;;;;;;;;;;;;;;;23.74;37.69;100121.13;4462875;32;33457;-77
2022/08/10 01:01:15;;;;;;;;;;;;;;;23.13;38.81;100121.16;4478862;32;34130;-78
2022/08/10 01:04:06;;;;;;;;;;;;;;;23.71;37.55;100122.13;4476102;32;34215;-78
2022/08/10 01:06:59;;;;;;;;;;;;;;;22.95;39.27;100123.06;4478687;32;34730;-78
2022/08/10 01:09:28;;;;;;;;;;;;;;;23.41;38.57;100123.03;4478597;32;34264;-78
2022/08/10 01:11:59;;;;;;;;;;;;;;;23.16;38.94;100126.28;4480895;32;33308;-77
2022/08/10 01:14:51;;;;;;;;;;;;;;;23.45;38.57;100122.84;4481565;32;34861;-78
2022/08/10 01:17:21;;;;;;;;;;;;;;;23.17;39.29;100116.53;4472907;32;34122;-79
2022/08/10 01:19:52;;;;;;;;;;;;;;;23.33;38.81;100116.50;4478141;32;34750;-78
2022/08/10 01:22:27;;;;;;;;;;;;;;;23.15;39.22;100124.56;4475483;32;33314;-78
2022/08/10 01:25:04;;;;;;;;;;;;;;;23.39;38.68;100122.28;4475400;32;34265;-78
2022/08/10 01:27:34;;;;;;;;;;;;;;;23.15;39.42;100121.09;4482828;32;34313;-77
2022/08/10 01:30:05;;;;;;;;;;;;;;;22.98;39.62;100122.91;4477907;32;33729;-79
2022/08/10 01:32:51;;;;;;;;;;;;;;;23.03;39.96;100121.78;4472149;32;33090;-78
2022/08/10 01:35:22;;;;;;;;;;;;;;;22.98;39.80;100119.41;4474283;32;34122;-77
2022/08/10 01:37:52;;;;;;;;;;;;;;;22.82;40.13;100122.06;4477426;32;34150;-79
2022/08/10 01:40:23;;;;;;;;;;;;;;;22.82;40.36;100123.84;4476977;32;33830;-79
2022/08/10 01:42:52;;;;;;;;;;;;;;;22.75;40.99;100128.63;4482063;32;32784;-78
2022/08/10 01:45:22;;;;;;;;;;;;;;;22.70;40.58;100126.25;4477372;32;34801;-80
2022/08/10 01:50:45;;;;;;;;;;;;;;;22.52;41.13;100133.44;4470526;32;33979;-77
2022/08/10 01:53:28;;;;;;;;;;;;;;;23.02;40.33;100131.50;4465968;32;33608;-79
2022/08/10 01:56:09;;;;;;;;;;;;;;;23.11;40.24;100132.78;4474064;32;34005;-78
2022/08/10 01:58:38;;;;;;;;;;;;;;;23.24;39.71;100130.25;4466132;32;33650;-78
2022/08/10 02:01:10;;;;;;;;;;;;;;;23.48;39.34;100139.41;4473560;32;34182;-79
2022/08/10 02:03:44;;;;;;;;;;;;;;;23.28;39.91;100134.44;4480553;32;34055;-77
2022/08/10 02:06:34;;;;;;;;;;;;;;;23.24;39.90;100133.75;4478228;32;34928;-78
2022/08/10 02:09:03;;;;;;;;;;;;;;;23.35;40.03;100136.63;4465310;32;33667;-78
2022/08/10 02:11:33;;;;;;;;;;;;;;;23.35;39.44;100128.69;4473507;32;34440;-78
2022/08/10 02:14:22;;;;;;;;;;;;;;;23.07;40.29;100129.44;4464569;32;33380;-79
2022/08/10 02:16:52;;;;;;;;;;;;;;;22.99;40.33;100129.91;4476395;32;33719;-78
2022/08/10 02:19:22;;;;;;;;;;;;;;;23.13;40.35;100118.53;4476687;32;34320;-79
2022/08/10 02:21:51;;;;;;;;;;;;;;;22.97;40.49;100121.16;4464278;32;34462;-78
2022/08/10 02:24:39;;;;;;;;;;;;;;;23.18;40.05;100126.19;4464075;32;32800;-77
2022/08/10 02:27:08;;;;;;;;;;;;;;;22.76;41.43;100125.03;4467642;32;34167;-77
2022/08/10 02:29:36;;;;;;;;;;;;;;;22.92;41.11;100131.16;4480269;32;33827;-79
2022/08/10 02:32:11;;;;;;;;;;;;;;;22.96;41.05;100126.56;4477176;32;34276;-78
2022/08/10 02:34:48;;;;;;;;;;;;;;;23.12;40.64;100124.78;4481216;32;33026;-78
2022/08/10 02:37:16;;;;;;;;;;;;;;;23.07;40.63;100126.81;4478954;32;34235;-78
2022/08/10 02:39:45;;;;;;;;;;;;;;;23.10;40.46;100125.78;4478612;32;35121;-77
2022/08/10 02:42:14;;;;;;;;;;;;;;;23.05;40.41;100134.00;4478814;32;34177;-78
2022/08/10 02:45:03;;;;;;;;;;;;;;;23.19;40.08;100133.19;4476642;32;33462;-77
2022/08/10 02:47:55;;;;;;;;;;;;;;;22.90;41.28;100137.47;4470755;32;34084;-79
2022/08/10 02:50:25;;;;;;;;;;;;;;;23.15;40.33;100145.75;4478229;32;33830;-79
2022/08/10 02:52:55;;;;;;;;;;;;;;;23.45;40.00;100136.09;4478305;32;34790;-78
2022/08/10 02:55:26;;;;;;;;;;;;;;;23.41;40.06;100141.59;4473894;32;33348;-79
2022/08/10 02:58:02;;;;;;;;;;;;;;;23.42;40.25;100145.91;4476370;32;34218;-79
2022/08/10 03:00:46;;;;;;;;;;;;;;;23.50;40.35;100139.31;4453425;32;34229;-77
2022/08/10 03:03:18;;;;;;;;;;;;;;;23.81;38.91;100144.50;4475732;32;34053;-78
2022/08/10 03:05:47;;;;;;;;;;;;;;;23.43;40.06;100150.25;4478262;32;34296;-77
2022/08/10 03:08:19;;;;;;;;;;;;;;;23.49;40.26;100143.78;4473238;32;34974;-79
2022/08/10 03:10:48;;;;;;;;;;;;;;;23.74;40.17;100148.47;4477066;32;33735;-77
2022/08/10 03:13:16;;;;;;;;;;;;;;;23.25;40.09;100151.38;4474754;32;34860;-77
2022/08/10 03:15:45;;;;;;;;;;;;;;;23.35;40.16;100162.25;4462371;32;32715;-78
2022/08/10 03:18:13;;;;;;;;;;;;;;;23.47;40.01;100172.13;4477295;32;34031;-77
2022/08/10 03:20:43;;;;;;;;;;;;;;;23.62;39.80;100160.62;4480493;32;34886;-77
2022/08/10 03:23:13;;;;;;;;;;;;;;;23.18;40.26;100169.37;4465193;32;34634;-79
2022/08/10 03:25:42;;;;;;;;;;;;;;;23.50;39.54;100171.09;4477978;32;32839;-78
2022/08/10 03:28:21;;;;;;;;;;;;;;;23.39;40.11;100172.59;4475666;32;34642;-78
2022/08/10 03:30:50;;;;;;;;;;;;;;;23.46;40.04;100174.84;4475822;32;32815;-80
2022/08/10 03:33:19;;;;;;;;;;;;;;;23.11;40.95;100180.41;4483268;32;33861;-77
2022/08/10 03:35:48;;;;;;;;;;;;;;;23.10;40.90;100179.56;4477585;32;33098;-78
2022/08/10 03:38:39;;;;;;;;;;;;;;;22.51;41.67;100181.94;4477567;32;34091;-78
2022/08/10 03:41:09;;;;;;;;;;;;;;;23.28;40.28;100182.09;4478784;32;33312;-77
2022/08/10 03:43:44;;;;;;;;;;;;;;;22.68;41.35;100175.72;4482430;32;34649;-78
2022/08/10 03:46:12;;;;;;;;;;;;;;;22.19;42.41;100180.16;4473971;32;33468;-79
2022/08/10 03:48:41;;;;;;;;;;;;;;;22.57;41.81;100167.56;4481851;32;33421;-79
2022/08/10 03:51:18;;;;;;;;;;;;;;;22.50;41.93;100174.97;4484261;32;33962;-79
2022/08/10 03:53:47;;;;;;;;;;;;;;;22.43;42.02;100185.97;4480305;32;33782;-79
2022/08/10 03:56:35;;;;;;;;;;;;;;;22.45;42.13;100176.16;4479854;32;33301;-77
2022/08/10 03:59:03;;;;;;;;;;;;;;;22.34;42.53;100180.22;4475738;32;34756;-79
2022/08/10 04:01:32;;;;;;;;;;;;;;;22.51;42.15;100181.09;4471821;32;35350;-78
2022/08/10 04:04:21;;;;;;;;;;;;;;;22.63;41.80;100185.69;4470489;32;33997;-77
2022/08/10 04:06:55;;;;;;;;;;;;;;;22.54;42.06;100181.78;4483134;32;32989;-78
2022/08/10 04:09:25;;;;;;;;;;;;;;;22.61;41.88;100184.09;4478683;32;33970;-78
2022/08/10 04:12:13;;;;;;;;;;;;;;;23.03;41.14;100187.94;4473848;32;34115;-77
2022/08/10 04:14:42;;;;;;;;;;;;;;;22.95;41.36;100189.22;4468649;32;34776;-80
2022/08/10 04:17:20;;;;;;;;;;;;;;;23.24;40.29;100194.62;4472605;32;33111;-77
2022/08/10 04:20:12;;;;;;;;;;;;;;;23.13;40.16;100192.63;4475485;32;33664;-77
2022/08/10 04:22:41;;;;;;;;;;;;;;;22.82;41.10;100195.28;4477415;32;34073;-79
2022/08/10 04:25:10;;;;;;;;;;;;;;;22.75;40.79;100186.81;4460703;32;34086;-79
2022/08/10 04:27:38;;;;;;;;;;;;;;;22.65;40.75;100188.28;4450919;32;32468;-77
2022/08/10 04:30:10;;;;;;;;;;;;;;;22.68;40.98;100196.87;4453862;32;33349;-79
2022/08/10 04:32:38;;;;;;;;;;;;;;;22.57;41.46;100186.91;4479242;32;34392;-78
2022/08/10 04:35:09;;;;;;;;;;;;;;;22.69;41.16;100190.66;4478777;32;33544;-78
2022/08/10 04:37:38;;;;;;;;;;;;;;;22.55;40.98;100190.56;4486122;32;33188;-77
2022/08/10 04:40:16;;;;;;;;;;;;;;;22.78;41.14;100189.28;4476655;32;34685;-77
2022/08/10 04:42:58;;;;;;;;;;;;;;;22.74;40.69;100193.06;4479545;32;35020;-77
2022/08/10 04:45:29;;;;;;;;;;;;;;;22.61;40.64;100192.87;4474111;32;34440;-78
2022/08/10 04:48:19;;;;;;;;;;;;;;;22.88;40.87;100195.78;4476603;32;32452;-77
2022/08/10 04:51:07;;;;;;;;;;;;;;;22.87;40.21;100202.00;4474084;32;33879;-78
2022/08/10 04:53:46;;;;;;;;;;;;;;;22.99;40.02;100200.50;4477845;32;34486;-77
2022/08/10 04:56:36;;;;;;;;;;;;;;;23.03;40.48;100193.22;4478594;32;33460;-77
2022/08/10 04:59:05;;;;;;;;;;;;;;;23.17;40.18;100195.94;4474433;32;33105;-78
2022/08/10 05:01:33;;;;;;;;;;;;;;;23.10;39.54;100200.75;4473804;32;35009;-79
2022/08/10 05:04:22;;;;;;;;;;;;;;;23.28;39.49;100197.97;4472896;32;33772;-80
2022/08/10 05:07:06;;;;;;;;;;;;;;;23.00;39.75;100199.53;4479702;32;34099;-76
2022/08/10 05:09:35;;;;;;;;;;;;;;;23.12;39.05;100203.28;4478013;32;33892;-78
2022/08/10 05:12:25;;;;;;;;;;;;;;;23.27;39.38;100196.25;4465363;32;34906;-78
2022/08/10 05:14:53;;;;;;;;;;;;;;;23.42;38.83;100200.69;4471802;32;34093;-78
2022/08/10 05:17:22;;;;;;;;;;;;;;;23.42;38.73;100198.88;4478163;32;34087;-78
2022/08/10 05:19:50;;;;;;;;;;;;;;;23.48;38.64;100196.81;4476517;32;33401;-79
2022/08/10 05:22:33;;;;;;;;;;;;;;;23.97;37.42;100199.19;4478073;32;32421;-79
2022/08/10 05:25:03;;;;;;;;;;;;;;;24.85;35.88;100206.09;4477189;32;35013;-78
2022/08/10 05:27:33;;;;;;;;;;;;;;;25.15;34.81;100197.06;4464667;32;34686;-78
2022/08/10 05:30:04;;;;;;;;;;;;;;;25.11;34.60;100192.94;4471362;32;32487;-79
2022/08/10 05:32:32;;;;;;;;;;;;;;;25.30;34.40;100206.72;4474930;32;34952;-80
2022/08/10 05:35:21;;;;;;;;;;;;;;;25.39;34.31;100199.94;4478117;32;33535;-78
2022/08/10 05:37:50;;;;;;;;;;;;;;;25.48;34.35;100199.31;4462116;32;32209;-78
2022/08/10 05:40:39;;;;;;;;;;;;;;;25.68;33.29;100197.13;4470757;32;33869;-78
2022/08/10 05:43:16;;;;;;;;;;;;;;;26.02;33.50;100208.12;4467953;32;33917;-77
2022/08/10 05:45:45;;;;;;;;;;;;;;;25.85;33.50;100201.28;4472244;32;34020;-78
2022/08/10 05:48:34;;;;;;;;;;;;;;;25.68;33.35;100205.94;4468643;32;34486;-77
2022/08/10 05:51:23;;;;;;;;;;;;;;;25.63;33.54;100205.41;4475921;32;34064;-77
2022/08/10 05:53:51;;;;;;;;;;;;;;;25.37;33.66;100208.94;4470316;32;34300;-78
2022/08/10 05:56:33;;;;;;;;;;;;;;;25.44;33.63;100211.13;4475674;32;34049;-79
2022/08/10 05:59:23;;;;;;;;;;;;;;;25.60;33.08;100199.47;4470254;32;34778;-78
2022/08/10 06:02:13;;;;;;;;;;;;;;;25.45;33.57;100204.84;4469664;32;34093;-78
2022/08/10 06:05:05;;;;;;;;;;;;;;;25.25;33.22;100197.34;4477256;32;34100;-77
2022/08/10 06:07:33;;;;;;;;;;;;;;;25.31;33.58;100210.22;4469458;32;33389;-79
2022/08/10 06:10:02;;;;;;;;;;;;;;;24.61;35.28;100207.66;4470812;32;34888;-79
2022/08/10 06:12:37;;;;;;;;;;;;;;;24.84;34.65;100206.16;4476449;32;34084;-79
2022/08/10 06:15:24;;;;;;;;;;;;;;;24.03;35.79;100196.19;4482905;32;34942;-79
2022/08/10 06:18:14;;;;;;;;;;;;;;;24.28;35.86;100206.13;4466738;32;34258;-77
2022/08/10 06:20:42;;;;;;;;;;;;;;;24.35;35.91;100201.28;4467442;32;33941;-77
2022/08/10 06:23:11;;;;;;;;;;;;;;;24.17;35.91;100204.16;4470543;32;34156;-77
2022/08/10 06:25:39;;;;;;;;;;;;;;;23.93;36.26;100205.66;4475025;32;34312;-77
2022/08/10 06:28:28;;;;;;;;;;;;;;;23.90;36.39;100204.03;4473907;32;34994;-78
2022/08/10 06:30:58;;;;;;;;;;;;;;;24.43;35.78;100204.34;4470114;32;34278;-77
2022/08/10 06:33:26;;;;;;;;;;;;;;;24.47;35.57;100200.56;4475984;32;33081;-78
2022/08/10 06:35:55;;;;;;;;;;;;;;;24.32;36.28;100201.50;4473194;32;33927;-77
2022/08/10 06:38:24;;;;;;;;;;;;;;;24.55;36.02;100208.03;4477069;32;34193;-77
2022/08/10 06:40:53;;;;;;;;;;;;;;;24.31;36.11;100205.06;4475240;32;34733;-77
2022/08/10 06:43:22;;;;;;;;;;;;;;;24.34;36.31;100204.91;4476516;32;33303;-79
2022/08/10 06:45:54;;;;;;;;;;;;;;;24.71;35.41;100216.72;4473582;32;35062;-78
2022/08/10 06:48:39;;;;;;;;;;;;;;;24.66;35.43;100208.22;4473480;32;35128;-77
2022/08/10 06:51:07;;;;;;;;;;;;;;;24.18;36.28;100200.53;4473305;32;34626;-78
2022/08/10 06:53:37;;;;;;;;;;;;;;;24.05;36.73;100194.31;4475517;32;33522;-79
2022/08/10 06:56:22;;;;;;;;;;;;;;;24.14;36.45;100191.09;4469471;32;35243;-78
2022/08/10 06:59:08;;;;;;;;;;;;;;;24.03;37.01;100196.19;4435443;32;34367;-78
2022/08/10 07:01:50;;;;;;;;;;;;;;;24.50;36.06;100205.69;4446816;32;33788;-78
2022/08/10 07:04:21;;;;;;;;;;;;;;;24.41;35.92;100207.06;4446383;32;33319;-77
2022/08/10 07:07:01;;;;;;;;;;;;;;;24.31;35.73;100205.06;4447602;32;34049;-80
2022/08/10 07:09:29;;;;;;;;;;;;;;;24.64;35.40;100208.28;4442002;32;35070;-78
2022/08/10 07:11:58;;;;;;;;;;;;;;;24.21;36.20;100197.72;4435710;32;34807;-78
2022/08/10 07:14:37;;;;;;;;;;;;;;;24.41;36.13;100198.28;4432954;32;32792;-79
2022/08/10 07:17:06;;;;;;;;;;;;;;;24.45;36.04;100197.13;4444816;32;34345;-79
2022/08/10 07:19:44;;;;;;;;;;;;;;;24.22;36.51;100191.47;4444970;32;34197;-80
2022/08/10 07:22:18;;;;;;;;;;;;;;;24.63;35.75;100189.84;4438317;32;34056;-76
2022/08/10 07:25:07;;;;;;;;;;;;;;;24.58;36.92;100195.44;4437131;32;33482;-81
2022/08/10 07:27:35;;;;;;;;;;;;;;;24.64;36.16;100197.69;4448958;32;33952;-77
2022/08/10 07:30:27;;;;;;;;;;;;;;;24.79;35.20;100187.03;4454961;32;34759;-78
2022/08/10 07:32:55;;;;;;;;;;;;;;;24.51;36.13;100193.28;4449374;32;34031;-80
2022/08/10 07:35:25;;;;;;;;;;;;;;;24.67;36.15;100192.22;4449075;32;33977;-79
2022/08/10 07:37:53;;;;;;;;;;;;;;;24.98;35.55;100194.66;4446415;32;33233;-78
2022/08/10 07:40:22;;;;;;;;;;;;;;;25.23;35.32;100196.63;4441858;32;34213;-80
2022/08/10 07:42:51;;;;;;;;;;;;;;;25.34;34.12;100192.25;4453801;32;33754;-78
2022/08/10 07:45:19;;;;;;;;;;;;;;;25.15;34.77;100191.75;4434370;32;33389;-79
2022/08/10 07:47:49;;;;;;;;;;;;;;;25.27;34.88;100193.66;4442977;32;34298;-77
2022/08/10 07:50:22;;;;;;;;;;;;;;;24.90;34.81;100189.87;4449220;32;33744;-81
2022/08/10 07:52:55;;;;;;;;;;;;;;;25.36;34.09;100183.37;4449339;32;34779;-79
2022/08/10 07:55:24;;;;;;;;;;;;;;;25.42;34.23;100188.25;4449679;32;33094;-79
2022/08/10 07:58:12;;;;;;;;;;;;;;;25.51;34.32;100185.81;4474287;32;33917;-78
2022/08/10 08:00:41;;;;;;;;;;;;;;;25.50;32.98;100196.56;4483204;32;34063;-80
2022/08/10 08:03:11;;;;;;;;;;;;;;;25.52;33.17;100195.50;4466287;32;33932;-79
2022/08/10 08:05:40;;;;;;;;;;;;;;;25.64;32.87;100193.00;4480879;32;33339;-78
2022/08/10 08:08:30;;;;;;;;;;;;;;;25.92;32.95;100195.47;4481333;32;34166;-78
2022/08/10 08:10:59;;;;;;;;;;;;;;;26.18;32.45;100190.16;4480856;32;34053;-78
2022/08/10 08:13:27;;;;;;;;;;;;;;;25.80;32.14;100196.28;4486190;32;34026;-79
2022/08/10 08:15:56;;;;;;;;;;;;;;;26.17;31.75;100180.47;4480316;32;33883;-80
2022/08/10 08:18:45;;;;;;;;;;;;;;;26.41;31.64;100185.87;4478411;32;34831;-78
2022/08/10 08:21:34;;;;;;;;;;;;;;;26.05;31.46;100182.19;4480212;32;34200;-79
2022/08/10 08:24:24;;;;;;;;;;;;;;;26.09;31.03;100181.00;4480211;32;33768;-78
2022/08/10 08:27:01;;;;;;;;;;;;;;;26.00;31.66;100189.63;4480727;32;34078;-79
2022/08/10 08:29:30;;;;;;;;;;;;;;;26.14;31.01;100183.34;4480455;32;34911;-77
2022/08/10 08:31:58;;;;;;;;;;;;;;;26.43;31.42;100183.09;4473305;32;33770;-78
2022/08/10 08:34:30;;;;;;;;;;;;;;;26.10;31.58;100174.72;4454575;32;32316;-79
2022/08/10 08:36:59;;;;;;;;;;;;;;;26.57;30.79;100177.66;4464816;32;33292;-79
2022/08/10 08:39:30;;;;;;;;;;;;;;;26.34;31.00;100177.47;4464615;32;34448;-78
2022/08/10 08:42:04;;;;;;;;;;;;;;;26.29;30.97;100173.41;4464378;32;34985;-79
2022/08/10 08:44:35;;;;;;;;;;;;;;;26.40;30.71;100169.03;4469136;32;33934;-80
2022/08/10 08:47:10;;;;;;;;;;;;;;;26.59;30.58;100173.06;4477441;32;33113;-80
2022/08/10 08:50:11;;;;;;;;;;;;;;;26.64;30.75;100178.91;4484684;32;33725;-79
2022/08/10 08:52:44;;;;;;;;;;;;;;;27.01;29.85;100171.75;4476973;32;34119;-80
2022/08/10 08:55:23;;;;;;;;;;;;;;;26.52;30.61;100177.09;4479296;32;34069;-78
2022/08/10 08:58:30;;;;;;;;;;;;;;;26.76;30.91;100174.50;4475580;32;33210;-80
2022/08/10 09:01:02;;;;;;;;;;;;;;;26.79;30.09;100175.13;4470197;32;33801;-81
2022/08/10 09:03:45;;;;;;;;;;;;;;;27.39;30.08;100170.69;4471832;32;34273;-79
2022/08/10 09:06:22;;;;;;;;;;;;;;;26.93;29.76;100173.28;4466679;32;33734;-80
2022/08/10 09:09:00;;;;;;;;;;;;;;;26.57;29.64;100175.00;4485585;32;34094;-78
2022/08/10 09:11:36;;;;;;;;;;;;;;;26.87;29.78;100165.72;4485427;32;35035;-79
2022/08/10 09:14:06;;;;;;;;;;;;;;;26.48;30.70;100178.28;4480000;32;34164;-80
2022/08/10 09:16:37;;;;;;;;;;;;;;;26.47;30.54;100172.13;4471931;32;34789;-79
2022/08/10 09:19:06;;;;;;;;;;;;;;;27.36;29.72;100172.75;4471300;32;32423;-79
2022/08/10 09:21:36;;;;;;;;;;;;;;;27.31;29.30;100166.94;4479528;32;34914;-78
2022/08/10 09:24:27;;;;;;;;;;;;;;;27.03;29.78;100174.28;4477807;32;34173;-79
2022/08/10 09:26:57;;;;;;;;;;;;;;;27.60;28.62;100172.72;4474475;32;34463;-79
2022/08/10 09:29:26;;;;;;;;;;;;;;;27.78;28.61;100165.94;4464891;32;33411;-80
2022/08/10 09:31:59;;;;;;;;;;;;;;;26.93;29.20;100162.63;4467300;32;33659;-78
2022/08/10 09:34:50;;;;;;;;;;;;;;;27.52;28.71;100167.09;4464385;32;34339;-80
2022/08/10 09:37:40;;;;;;;;;;;;;;;27.73;28.29;100156.63;4462915;32;34599;-78
2022/08/10 09:40:30;;;;;;;;;;;;;;;27.35;28.92;100157.72;4464578;32;33214;-81
2022/08/10 09:43:20;;;;;;;;;;;;;;;27.04;29.95;100176.00;4470564;32;34246;-78
2022/08/10 09:45:56;;;;;;;;;;;;;;;27.98;28.64;100155.56;4474948;32;35071;-78
2022/08/10 09:48:25;;;;;;;;;;;;;;;27.55;28.97;100162.41;4478052;32;34148;-78
2022/08/10 09:50:56;;;;;;;;;;;;;;;28.40;27.78;100158.47;4475696;32;33348;-79
2022/08/10 09:53:47;;;;;;;;;;;;;;;28.24;27.16;100164.19;4478585;32;34053;-80
2022/08/10 09:56:20;;;;;;;;;;;;;;;27.98;27.03;100160.91;4477438;32;33906;-80
2022/08/10 09:59:03;;;;;;;;;;;;;;;27.90;27.60;100153.50;4470102;32;34119;-80
2022/08/10 10:01:59;;;;;;;;;;;;;;;28.30;27.87;100155.69;4467289;32;35354;-78
2022/08/10 10:04:33;;;;;;;;;;;;;;;28.35;27.26;100153.50;4453455;32;36034;-79
2022/08/10 10:07:05;;;;;;;;;;;;;;;28.50;27.40;100141.63;4474233;32;34033;-79
2022/08/10 10:09:34;;;;;;;;;;;;;;;28.61;26.71;100143.44;4477310;32;34255;-78
2022/08/10 10:12:08;;;;;;;;;;;;;;;28.49;27.17;100134.59;4477319;32;34105;-79
2022/08/10 10:17:26;;;;;;;;;;;;;;;28.29;26.75;100145.97;4478540;32;33908;-77
2022/08/10 10:19:55;;;;;;;;;;;;;;;28.36;25.86;100135.66;4483528;32;34006;-78
2022/08/10 10:22:28;;;;;;;;;;;;;;;28.37;26.04;100130.22;4478717;32;32732;-79
2022/08/10 10:24:58;;;;;;;;;;;;;;;28.54;26.37;100134.22;4481521;32;33882;-80
2022/08/10 10:27:30;;;;;;;;;;;;;;;28.57;25.82;100131.31;4474181;32;33901;-80
2022/08/10 10:30:02;;;;;;;;;;;;;;;28.70;25.20;100126.62;4479364;32;34595;-80
2022/08/10 10:32:36;;;;;;;;;;;;;;;28.81;25.92;100127.59;4473229;32;32777;-79
2022/08/10 10:35:08;;;;;;;;;;;;;;;28.50;25.64;100122.09;4468204;32;34275;-80
2022/08/10 10:37:36;;;;;;;;;;;;;;;28.57;25.41;100119.78;4462744;32;34274;-78
2022/08/10 10:40:25;;;;;;;;;;;;;;;28.77;25.52;100124.31;4463220;32;34184;-78
2022/08/10 10:42:58;;;;;;;;;;;;;;;28.89;25.31;100114.44;4471969;32;33327;-78
2022/08/10 10:45:29;;;;;;;;;;;;;;;28.76;24.62;100119.97;4463747;32;33997;-79
2022/08/10 10:47:59;;;;;;;;;;;;;;;29.29;24.10;100111.97;4469989;32;33043;-80
2022/08/10 10:50:29;;;;;;;;;;;;;;;29.15;23.79;100106.97;4477435;32;34561;-78
2022/08/10 10:52:58;;;;;;;;;;;;;;;29.71;24.39;100095.94;4475114;32;33891;-79
2022/08/10 10:55:28;;;;;;;;;;;;;;;29.67;24.15;100101.66;4468225;32;34957;-78
2022/08/10 10:57:58;;;;;;;;;;;;;;;29.73;23.41;100106.50;4439810;32;873198;-79
2022/08/10 11:00:34;;;;;;;;;;;;;;;29.44;23.44;100107.16;4466913;32;34164;-78
2022/08/10 11:03:06;;;;;;;;;;;;;;;29.66;22.68;100098.16;4474138;32;34023;-78
2022/08/10 11:05:38;;;;;;;;;;;;;;;29.24;22.72;100114.22;4470646;32;33889;-80
2022/08/10 11:08:08;;;;;;;;;;;;;;;29.91;22.54;100104.03;4465264;32;35798;-80
2022/08/10 11:10:45;;;;;;;;;;;;;;;29.77;21.55;100099.91;4468670;32;34052;-79
2022/08/10 11:13:40;;;;;;;;;;;;;;;29.93;22.23;100089.53;4475239;32;33451;-80
2022/08/10 11:16:33;;;;;;;;;;;;;;;29.14;23.76;100086.56;4467484;32;34930;-80
2022/08/10 11:19:04;;;;;;;;;;;;;;;29.86;23.85;100087.53;4465900;32;34910;-80
2022/08/10 11:21:37;;;;;;;;;;;;;;;30.20;22.77;100090.75;4474606;32;33855;-79
2022/08/10 11:24:07;;;;;;;;;;;;;;;29.88;23.03;100081.06;4480615;32;33677;-80
2022/08/10 11:26:58;;;;;;;;;;;;;;;29.81;23.96;100087.94;4477499;32;32609;-79
2022/08/10 11:29:29;;;;;;;;;;;;;;;29.86;23.51;100082.19;4474755;32;33737;-80
2022/08/10 11:32:02;;;;;;;;;;;;;;;30.27;22.94;100081.22;4473095;32;34018;-79
2022/08/10 11:34:34;;;;;;;;;;;;;;;30.29;22.82;100081.09;4475701;32;33247;-78
2022/08/10 11:37:34;;;;;;;;;;;;;;;30.33;22.90;100088.72;4469910;32;33886;-80
2022/08/10 11:40:24;;;;;;;;;;;;;;;30.58;21.85;100079.31;4465132;32;35132;-79
2022/08/10 11:42:54;;;;;;;;;;;;;;;30.63;21.54;100085.09;4470545;32;33715;-79
2022/08/10 11:45:25;;;;;;;;;;;;;;;30.39;21.44;100071.25;4468426;32;31916;-79
2022/08/10 11:47:56;;;;;;;;;;;;;;;30.42;21.17;100070.97;4471493;32;35780;-80
2022/08/10 11:50:26;;;;;;;;;;;;;;;30.78;21.09;100074.81;4465446;32;34179;-80
2022/08/10 11:52:57;;;;;;;;;;;;;;;30.85;21.19;100083.16;4467347;32;34624;-81
2022/08/10 11:55:28;;;;;;;;;;;;;;;30.58;20.97;100071.28;4471502;32;33406;-81
2022/08/10 11:59:55;;;;;;;;;;;;;;;30.58;21.26;100073.09;4471353;32;31942;-79
2022/08/10 12:00:51;;;;;;;;;;;;;;;30.65;20.95;100065.38;4474921;32;33946;-78
2022/08/10 12:03:21;;;;;;;;;;;;;;;30.58;21.43;100078.47;4474869;32;33126;-78
2022/08/10 12:05:49;;;;;;;;;;;;;;;30.75;20.99;100077.75;4471604;32;33847;-80
2022/08/10 12:08:22;;;;;;;;;;;;;;;30.92;20.42;100081.59;4473988;32;34779;-79
2022/08/10 12:11:12;;;;;;;;;;;;;;;31.53;19.54;100061.63;4477020;32;34177;-80
2022/08/10 12:13:52;;;;;;;;;;;;;;;31.02;19.96;100066.34;4470919;32;33743;-80
2022/08/10 12:16:41;;;;;;;;;;;;;;;31.39;19.69;100068.31;4478281;32;33132;-80
2022/08/10 12:19:16;;;;;;;;;;;;;;;31.34;19.37;100065.19;4476704;32;34800;-81
2022/08/10 12:21:45;;;;;;;;;;;;;;;31.20;19.46;100055.75;4474086;32;33670;-79
2022/08/10 12:24:19;;;;;;;;;;;;;;;32.01;18.94;100052.53;4478504;32;33253;-80
2022/08/10 12:26:54;;;;;;;;;;;;;;;31.86;17.92;100049.47;4473218;32;33519;-81
2022/08/10 12:29:31;;;;;;;;;;;;;;;31.82;18.21;100048.13;4471217;32;34080;-81
2022/08/10 12:32:18;;;;;;;;;;;;;;;31.78;18.14;100045.88;4477216;32;33695;-79
2022/08/10 12:34:55;;;;;;;;;;;;;;;32.03;18.02;100044.34;4477982;32;35223;-79
2022/08/10 12:37:24;;;;;;;;;;;;;;;31.86;18.25;100049.47;4476019;32;33286;-81
2022/08/10 12:39:55;;;;;;;;;;;;;;;32.07;18.27;100060.00;4473432;32;34175;-80
2022/08/10 12:42:46;;;;;;;;;;;;;;;32.40;17.04;100044.22;4475887;32;34445;-80
2022/08/10 12:45:36;;;;;;;;;;;;;;;32.35;18.03;100043.00;4477274;32;33922;-80
2022/08/10 12:48:05;;;;;;;;;;;;;;;32.42;17.37;100041.41;4469037;32;33153;-79
2022/08/10 12:50:37;;;;;;;;;;;;;;;32.06;16.42;100038.69;4472495;32;34184;-80
2022/08/10 12:53:06;;;;;;;;;;;;;;;32.27;17.38;100041.09;4464373;32;34286;-79
2022/08/10 12:55:37;;;;;;;;;;;;;;;32.28;18.23;100049.00;4468329;32;34887;-81
2022/08/10 12:58:06;;;;;;;;;;;;;;;32.14;18.30;100037.91;4470080;32;33515;-79
2022/08/10 13:03:45;;;;;;;;;;;;;;;32.58;17.17;100021.97;4469679;32;34426;-80
2022/08/10 13:06:53;;;;;;;;;;;;;;;32.25;18.47;100022.44;4469002;32;34221;-79
2022/08/10 13:09:33;;;;;;;;;;;;;;;32.41;18.33;100026.31;4471443;32;33149;-80
2022/08/10 13:12:21;;;;;;;;;;;;;;;32.68;18.19;100025.41;4469460;32;35002;-80
2022/08/10 13:15:27;;;;;;;;;;;;;;;32.06;18.50;100015.38;4464084;32;33898;-80
2022/08/10 13:18:17;;;;;;;;;;;;;;;32.32;18.14;100020.00;4468575;32;34430;-78
2022/08/10 13:20:50;;;;;;;;;;;;;;;32.22;18.27;100014.69;4462518;32;33569;-79
2022/08/10 13:23:21;;;;;;;;;;;;;;;32.65;18.22;100012.28;4475897;32;34154;-78
2022/08/10 13:25:50;;;;;;;;;;;;;;;33.01;18.10;100006.81;4463690;32;34859;-78
2022/08/10 13:28:19;;;;;;;;;;;;;;;33.39;17.97;99996.69;4476692;32;33668;-81